createdAt,value
2018-11-01T00:02:00.941Z,5.47
2018-11-01T00:04:31.087Z,9.77
2018-11-01T00:07:01.126Z,7.80
2018-11-01T00:09:31.229Z,5.60
2018-11-01T00:12:01.234Z,5.80
2018-11-01T00:14:32.089Z,7.73
2018-11-01T00:17:02.214Z,8.30
2018-11-01T00:19:32.230Z,6.70
2018-11-01T00:22:02.277Z,7.77
2018-11-01T00:24:32.475Z,8.50
2018-11-01T00:27:02.702Z,7.83
2018-11-01T00:29:32.720Z,6.77
2018-11-01T00:32:02.729Z,7.57
2018-11-01T00:34:32.759Z,6.23
2018-11-01T00:37:02.885Z,7.20
2018-11-01T00:39:32.981Z,9.80
2018-11-01T00:42:03.127Z,6.63
2018-11-01T00:44:33.251Z,5.70
2018-11-01T00:47:03.273Z,5.93
2018-11-01T00:49:33.290Z,5.27
2018-11-01T00:52:03.348Z,5.63
2018-11-01T00:54:33.341Z,11.00
2018-11-01T00:57:03.453Z,4.93
2018-11-01T00:59:33.586Z,10.57
2018-11-01T01:02:03.609Z,7.33
2018-11-01T01:04:33.705Z,6.70
2018-11-01T01:07:03.813Z,6.00
2018-11-01T01:09:33.977Z,4.70
2018-11-01T01:12:04.085Z,7.67
2018-11-01T01:14:34.311Z,7.67
2018-11-01T01:17:04.409Z,7.20
2018-11-01T01:19:34.453Z,12.27
2018-11-01T01:22:05.573Z,6.30
2018-11-01T01:24:35.630Z,7.17
2018-11-01T01:27:05.638Z,8.80
2018-11-01T01:29:35.762Z,10.53
2018-11-01T01:32:05.885Z,7.53
2018-11-01T01:34:35.945Z,7.00
2018-11-01T01:37:06.443Z,10.60
2018-11-01T01:39:36.662Z,5.83
2018-11-01T01:42:06.783Z,4.73
2018-11-01T01:44:37.009Z,6.47
2018-11-01T01:47:07.017Z,6.50
2018-11-01T01:49:37.030Z,11.40
2018-11-01T01:52:07.170Z,6.53
2018-11-01T01:54:37.293Z,11.27
2018-11-01T01:57:07.416Z,8.57
2018-11-01T01:59:37.436Z,13.27
2018-11-01T02:02:07.558Z,8.57
2018-11-01T02:04:37.649Z,8.57
2018-11-01T02:07:07.803Z,13.53
2018-11-01T02:09:37.926Z,9.50
2018-11-01T02:12:08.048Z,9.93
2018-11-01T02:14:38.012Z,5.80
2018-11-01T02:17:08.807Z,8.43
2018-11-01T02:19:38.927Z,7.23
2018-11-01T02:22:09.018Z,10.00
2018-11-01T02:24:39.041Z,6.93
2018-11-01T02:27:09.089Z,9.40
2018-11-01T02:29:39.212Z,12.43
2018-11-01T02:32:09.335Z,8.50
2018-11-01T02:34:39.342Z,7.70
2018-11-01T02:37:09.376Z,9.70
2018-11-01T02:39:39.501Z,7.17
2018-11-01T02:42:09.621Z,8.00
2018-11-01T02:44:39.743Z,6.47
2018-11-01T02:47:10.386Z,7.13
2018-11-01T02:49:40.397Z,10.57
2018-11-01T02:52:10.522Z,9.40
2018-11-01T02:54:40.642Z,9.07
2018-11-01T02:57:10.626Z,7.13
2018-11-01T02:59:40.743Z,6.53
2018-11-01T03:02:10.706Z,13.37
2018-11-01T03:04:40.826Z,9.43
2018-11-01T03:07:10.948Z,6.40
2018-11-01T03:09:40.968Z,9.57
2018-11-01T03:12:11.194Z,7.10
2018-11-01T03:14:41.213Z,10.00
2018-11-01T03:17:12.073Z,10.97
2018-11-01T03:19:42.074Z,8.80
2018-11-01T03:22:12.090Z,8.17
2018-11-01T03:24:42.214Z,10.53
2018-11-01T03:27:12.337Z,6.77
2018-11-01T03:29:42.459Z,7.27
2018-11-01T03:32:12.570Z,8.10
2018-11-01T03:34:42.671Z,6.07
2018-11-01T03:37:12.826Z,5.60
2018-11-01T03:39:42.918Z,14.70
2018-11-01T03:42:12.973Z,9.27
2018-11-01T03:44:43.011Z,9.30
2018-11-01T03:47:12.970Z,9.83
2018-11-01T03:49:42.951Z,6.00
2018-11-01T03:52:13.031Z,11.13
2018-11-01T03:54:43.071Z,7.37
2018-11-01T03:57:13.071Z,9.63
2018-11-01T03:59:43.110Z,9.20
2018-11-01T04:02:13.198Z,9.37
2018-11-01T04:04:43.182Z,9.30
2018-11-01T04:07:13.171Z,5.43
2018-11-01T04:09:43.395Z,8.00
2018-11-01T04:12:13.517Z,6.40
2018-11-01T04:14:43.845Z,9.87
2018-11-01T04:17:13.969Z,8.80
2018-11-01T04:19:44.005Z,13.13
2018-11-01T04:22:14.110Z,8.80
2018-11-01T04:24:44.234Z,6.40
2018-11-01T04:27:14.333Z,9.33
2018-11-01T04:29:44.346Z,6.73
2018-11-01T04:32:14.414Z,13.83
2018-11-01T04:34:44.489Z,10.10
2018-11-01T04:37:14.554Z,8.20
2018-11-01T04:39:44.661Z,7.50
2018-11-01T04:42:14.683Z,10.37
2018-11-01T04:44:44.722Z,14.20
2018-11-01T04:47:15.017Z,6.27
2018-11-01T04:49:45.051Z,10.40
2018-11-01T04:52:15.129Z,6.10
2018-11-01T04:54:45.141Z,11.03
2018-11-01T04:57:15.182Z,12.50
2018-11-01T04:59:45.189Z,11.03
2018-11-01T05:02:15.234Z,9.40
2018-11-01T05:04:46.375Z,11.07
2018-11-01T05:07:16.522Z,9.87
2018-11-01T05:09:46.540Z,10.13
2018-11-01T05:12:16.564Z,12.50
2018-11-01T05:14:47.384Z,7.67
2018-11-01T05:17:17.522Z,8.40
2018-11-01T05:19:47.629Z,10.40
2018-11-01T05:22:17.769Z,8.20
2018-11-01T05:24:48.070Z,10.97
2018-11-01T05:27:18.157Z,11.60
2018-11-01T05:29:48.412Z,6.93
2018-11-01T05:32:18.572Z,9.47
2018-11-01T05:34:48.724Z,5.70
2018-11-01T05:37:18.920Z,11.00
2018-11-01T05:39:49.161Z,15.40
2018-11-01T05:42:19.368Z,10.87
2018-11-01T05:44:49.804Z,10.33
2018-11-01T05:47:19.865Z,12.07
2018-11-01T05:49:50.044Z,11.10
2018-11-01T05:52:20.097Z,9.93
2018-11-01T05:54:50.329Z,9.87
2018-11-01T05:57:20.414Z,9.80
2018-11-01T05:59:50.551Z,9.67
2018-11-01T06:02:24.032Z,10.47
2018-11-01T06:04:54.168Z,10.03
2018-11-01T06:07:28.576Z,10.30
2018-11-01T06:09:58.598Z,7.00
2018-11-01T06:12:28.923Z,7.47
2018-11-01T06:14:58.960Z,13.67
2018-11-01T06:17:29.168Z,12.47
2018-11-01T06:19:59.400Z,10.17
2018-11-01T06:22:29.514Z,7.00
2018-11-01T06:24:59.637Z,5.37
2018-11-01T06:27:30.066Z,8.43
2018-11-01T06:30:00.203Z,12.30
2018-11-01T06:32:30.344Z,7.53
2018-11-01T06:35:03.599Z,11.20
2018-11-01T06:37:33.692Z,6.23
2018-11-01T06:40:03.855Z,9.03
2018-11-01T06:42:33.973Z,5.57
2018-11-01T06:45:04.065Z,7.77
2018-11-01T06:47:34.191Z,8.03
2018-11-01T06:50:04.443Z,8.33
2018-11-01T06:52:34.519Z,7.37
2018-11-01T06:55:05.200Z,11.37
2018-11-01T06:57:35.336Z,7.27
2018-11-01T07:00:07.137Z,9.33
2018-11-01T07:02:37.408Z,8.33
2018-11-01T07:05:07.870Z,7.57
2018-11-01T07:07:38.370Z,11.47
2018-11-01T07:10:11.461Z,11.03
2018-11-01T07:12:41.685Z,9.67
2018-11-01T07:15:13.277Z,5.37
2018-11-01T07:17:43.436Z,9.43
2018-11-01T07:20:14.713Z,12.10
2018-11-01T07:22:45.272Z,10.50
2018-11-01T07:25:16.968Z,10.90
2018-11-01T07:27:47.129Z,6.83
2018-11-01T07:30:18.272Z,10.70
2018-11-01T07:32:48.419Z,12.20
2018-11-01T07:35:18.439Z,5.67
2018-11-01T07:37:48.844Z,10.47
2018-11-01T07:40:19.581Z,7.03
2018-11-01T07:42:49.665Z,14.37
2018-11-01T07:45:19.825Z,9.77
2018-11-01T07:47:50.024Z,8.93
2018-11-01T07:50:20.178Z,7.67
2018-11-01T07:52:50.291Z,6.23
2018-11-01T07:55:20.343Z,8.10
2018-11-01T07:57:50.488Z,14.07
2018-11-01T08:00:20.531Z,5.57
2018-11-01T08:02:50.608Z,7.53
2018-11-01T08:05:20.809Z,9.17
2018-11-01T08:07:51.712Z,5.63
2018-11-01T08:10:21.870Z,16.47
2018-11-01T08:12:52.348Z,11.57
2018-11-01T08:15:22.443Z,13.50
2018-11-01T08:17:52.646Z,7.73
2018-11-01T08:20:22.894Z,12.77
2018-11-01T08:22:52.852Z,6.00
2018-11-01T08:25:22.928Z,10.70
2018-11-01T08:27:53.170Z,7.93
2018-11-01T08:30:23.259Z,9.73
2018-11-01T08:32:53.483Z,5.63
2018-11-01T08:35:23.708Z,10.27
2018-11-01T08:37:53.830Z,9.73
2018-11-01T08:40:23.953Z,13.77
2018-11-01T08:42:54.587Z,7.30
2018-11-01T08:45:24.708Z,9.10
2018-11-01T08:47:54.934Z,10.80
2018-11-01T08:50:25.056Z,9.43
2018-11-01T08:52:55.178Z,7.50
2018-11-01T08:55:25.300Z,8.80
2018-11-01T08:57:55.834Z,6.30
2018-11-01T09:00:26.058Z,6.83
2018-11-01T09:02:56.109Z,7.80
2018-11-01T09:05:26.565Z,8.33
2018-11-01T09:07:56.600Z,8.17
2018-11-01T09:10:26.635Z,9.27
2018-11-01T09:12:56.882Z,7.93
2018-11-01T09:15:27.610Z,8.53
2018-11-01T09:17:57.733Z,11.67
2018-11-01T09:20:27.808Z,13.33
2018-11-01T09:22:57.864Z,8.27
2018-11-01T09:25:27.936Z,7.13
2018-11-01T09:27:58.340Z,10.00
2018-11-01T09:30:28.701Z,12.50
2018-11-01T09:32:58.844Z,6.57
2018-11-01T09:35:29.053Z,7.03
2018-11-01T09:37:58.992Z,6.13
2018-11-01T09:40:29.142Z,10.63
2018-11-01T09:42:59.940Z,12.27
2018-11-01T09:45:30.009Z,12.63
2018-11-01T09:48:00.737Z,6.90
2018-11-01T09:50:30.962Z,9.33
2018-11-01T09:53:01.106Z,11.10
2018-11-01T09:55:31.153Z,9.40
2018-11-01T09:58:01.534Z,10.43
2018-11-01T10:00:31.655Z,8.63
2018-11-01T10:03:01.778Z,11.97
2018-11-01T10:05:31.936Z,10.17
2018-11-01T10:08:02.013Z,11.03
2018-11-01T10:10:32.082Z,8.43
2018-11-01T10:13:02.373Z,7.27
2018-11-01T10:15:32.637Z,7.53
2018-11-01T10:18:03.037Z,9.73
2018-11-01T10:20:33.560Z,14.17
2018-11-01T10:23:03.812Z,6.97
2018-11-01T10:25:33.920Z,7.67
2018-11-01T10:28:04.034Z,7.13
2018-11-01T10:30:34.113Z,11.50
2018-11-01T10:33:04.271Z,6.70
2018-11-01T10:35:34.495Z,9.97
2018-11-01T10:38:04.605Z,10.73
2018-11-01T10:40:34.896Z,4.87
2018-11-01T10:43:05.276Z,10.00
2018-11-01T10:45:35.497Z,10.20
2018-11-01T10:48:05.722Z,12.00
2018-11-01T10:50:35.896Z,6.93
2018-11-01T10:53:05.996Z,12.43
2018-11-01T10:55:36.192Z,6.70
2018-11-01T10:58:06.518Z,8.97
2018-11-01T11:00:42.678Z,9.23
2018-11-01T11:03:12.904Z,11.57
2018-11-01T11:05:43.537Z,9.77
2018-11-01T11:08:13.624Z,13.37
2018-11-01T11:10:43.800Z,8.90
2018-11-01T11:13:13.913Z,5.13
2018-11-01T11:15:43.969Z,10.80
2018-11-01T11:18:14.046Z,12.27
2018-11-01T11:20:44.389Z,7.67
2018-11-01T11:23:14.296Z,10.30
2018-11-01T11:25:44.428Z,7.57
2018-11-01T11:28:14.642Z,7.97
2018-11-01T11:30:44.969Z,8.40
2018-11-01T11:33:14.964Z,7.27
2018-11-01T11:35:45.476Z,5.47
2018-11-01T11:38:15.538Z,8.33
2018-11-01T11:40:45.762Z,7.47
2018-11-01T11:43:15.885Z,11.33
2018-11-01T11:45:46.007Z,7.57
2018-11-01T11:48:16.136Z,7.80
2018-11-01T11:50:46.563Z,6.67
2018-11-01T11:53:16.887Z,7.70
2018-11-01T11:55:47.116Z,6.30
2018-11-01T11:58:17.337Z,9.17
2018-11-01T12:00:47.663Z,9.83
2018-11-01T12:03:19.324Z,7.70
2018-11-01T12:05:49.553Z,4.67
2018-11-01T12:08:19.771Z,5.73
2018-11-01T12:10:50.610Z,9.30
2018-11-01T12:13:20.733Z,7.67
2018-11-01T12:15:50.931Z,4.67
2018-11-01T12:18:21.221Z,5.40
2018-11-01T12:20:51.918Z,9.37
2018-11-01T12:23:22.247Z,5.07
2018-11-01T12:25:52.917Z,6.73
2018-11-01T12:28:23.152Z,4.63
2018-11-01T12:30:53.181Z,10.87
2018-11-01T12:33:23.349Z,8.03
2018-11-01T12:35:54.199Z,11.33
2018-11-01T12:38:24.245Z,8.53
2018-11-01T12:40:54.319Z,8.47
2018-11-01T12:43:24.412Z,7.83
2018-11-01T12:45:54.381Z,9.30
2018-11-01T12:48:24.599Z,6.33
2018-11-01T12:50:54.820Z,6.73
2018-11-01T12:53:24.975Z,5.73
2018-11-01T12:55:55.167Z,6.00
2018-11-01T12:58:25.086Z,7.40
2018-11-01T13:00:55.228Z,7.93
2018-11-01T13:03:25.672Z,8.20
2018-11-01T13:05:56.214Z,4.93
2018-11-01T13:08:26.400Z,8.67
2018-11-01T13:10:56.618Z,7.93
2018-11-01T13:13:27.559Z,10.80
2018-11-01T13:15:57.711Z,13.30
2018-11-01T13:18:27.911Z,14.40
2018-11-01T13:20:58.133Z,9.77
2018-11-01T13:23:28.252Z,13.50
2018-11-01T13:25:58.479Z,8.63
2018-11-01T13:28:28.684Z,8.37
2018-11-01T13:30:59.548Z,10.00
2018-11-01T13:33:30.722Z,8.10
2018-11-01T13:36:02.448Z,7.67
2018-11-01T13:38:33.229Z,6.07
2018-11-01T13:41:04.839Z,5.43
2018-11-01T13:43:35.580Z,11.00
2018-11-01T13:46:06.991Z,8.67
2018-11-01T13:48:38.595Z,7.57
2018-11-01T13:51:09.393Z,11.40
2018-11-01T13:53:39.979Z,9.77
2018-11-01T13:56:10.488Z,11.13
2018-11-01T13:58:41.333Z,6.83
2018-11-01T14:01:11.656Z,7.80
2018-11-01T14:03:41.865Z,11.23
2018-11-01T14:06:12.499Z,9.73
2018-11-01T14:08:42.636Z,11.30
2018-11-01T14:11:12.784Z,10.73
2018-11-01T14:13:43.821Z,10.03
2018-11-01T14:16:14.609Z,8.20
2018-11-01T14:18:45.891Z,8.63
2018-11-01T14:21:16.113Z,10.57
2018-11-01T14:23:46.560Z,12.33
2018-11-01T14:26:16.924Z,8.17
2018-11-01T14:28:47.199Z,10.63
2018-11-01T14:31:17.463Z,9.03
2018-11-01T14:33:48.160Z,13.30
2018-11-01T14:36:18.305Z,8.47
2018-11-01T14:38:48.404Z,12.33
2018-11-01T14:41:18.632Z,11.23
2018-11-01T14:43:48.752Z,10.63
2018-11-01T14:46:18.874Z,13.90
2018-11-01T14:48:49.120Z,15.17
2018-11-01T14:51:19.272Z,11.70
2018-11-01T14:53:49.664Z,12.50
2018-11-01T14:56:21.310Z,8.80
2018-11-01T14:58:51.167Z,14.40
2018-11-01T15:01:20.045Z,8.80
2018-11-01T15:03:50.141Z,10.03
2018-11-01T15:06:20.211Z,7.23
2018-11-01T15:08:51.137Z,9.73
2018-11-01T15:11:21.237Z,11.67
2018-11-01T15:13:51.404Z,13.30
2018-11-01T15:16:21.637Z,10.90
2018-11-01T15:18:51.741Z,8.70
2018-11-01T15:21:21.919Z,13.37
2018-11-01T15:23:52.041Z,17.37
2018-11-01T15:26:22.223Z,11.13
2018-11-01T15:28:52.341Z,19.67
2018-11-01T15:31:22.517Z,15.57
2018-11-01T15:33:52.896Z,19.27
2018-11-01T15:36:22.961Z,13.37
2018-11-01T15:38:53.185Z,12.80
2018-11-01T15:41:23.212Z,15.77
2018-11-01T15:43:53.444Z,19.53
2018-11-01T15:46:23.655Z,15.47
2018-11-01T15:48:53.880Z,14.23
2018-11-01T15:51:24.106Z,13.57
2018-11-01T15:53:54.244Z,14.50
2018-11-01T15:56:24.472Z,14.77
2018-11-01T15:58:54.574Z,18.50
2018-11-01T16:01:24.644Z,14.20
2018-11-01T16:03:54.766Z,16.83
2018-11-01T16:06:24.941Z,15.23
2018-11-01T16:08:55.166Z,15.07
2018-11-01T16:11:25.320Z,13.93
2018-11-01T16:13:55.518Z,14.10
2018-11-01T16:16:25.739Z,19.07
2018-11-01T16:18:55.868Z,15.17
2018-11-01T16:21:25.985Z,18.53
2018-11-01T16:23:56.269Z,17.00
2018-11-01T16:26:26.400Z,13.43
2018-11-01T16:28:56.631Z,18.80
2018-11-01T16:31:26.885Z,17.30
2018-11-01T16:33:57.652Z,16.77
2018-11-01T16:36:27.827Z,13.80
2018-11-01T16:38:58.070Z,17.93
2018-11-01T16:41:28.294Z,12.03
2018-11-01T16:43:58.520Z,13.87
2018-11-01T16:46:28.745Z,12.93
2018-11-01T16:48:58.885Z,29.23
2018-11-01T16:51:29.297Z,11.30
2018-11-01T16:53:59.436Z,12.97
2018-11-01T16:56:29.645Z,12.20
2018-11-01T16:58:59.767Z,13.93
2018-11-01T17:01:29.857Z,14.70
2018-11-01T17:03:59.916Z,11.73
2018-11-01T17:06:30.254Z,9.70
2018-11-01T17:09:00.399Z,10.90
2018-11-01T17:11:30.492Z,7.97
2018-11-01T17:14:00.604Z,10.33
2018-11-01T17:16:30.727Z,11.80
2018-11-01T17:19:00.816Z,8.17
2018-11-01T17:21:30.977Z,13.40
2018-11-01T17:24:01.108Z,6.17
2018-11-01T17:26:31.217Z,9.70
2018-11-01T17:29:01.565Z,8.00
2018-11-01T17:31:31.768Z,5.57
2018-11-01T17:34:01.904Z,8.27
2018-11-01T17:36:32.065Z,7.23
2018-11-01T17:39:02.340Z,5.37
2018-11-01T17:41:33.083Z,7.87
2018-11-01T17:44:03.444Z,7.17
2018-11-01T17:46:33.576Z,4.70
2018-11-01T17:49:03.853Z,9.23
2018-11-01T17:51:34.606Z,7.37
2018-11-01T17:54:04.739Z,7.07
2018-11-01T17:56:35.143Z,9.77
2018-11-01T17:59:05.632Z,6.00
2018-11-01T18:01:35.959Z,9.57
2018-11-01T18:04:06.990Z,8.27
2018-11-01T18:06:37.473Z,7.17
2018-11-01T18:09:10.181Z,6.10
2018-11-01T18:11:40.245Z,7.53
2018-11-01T18:14:10.427Z,10.57
2018-11-01T18:16:40.524Z,9.73
2018-11-01T18:19:10.747Z,7.70
2018-11-01T18:21:41.278Z,9.07
2018-11-01T18:24:11.467Z,5.27
2018-11-01T18:26:41.728Z,8.03
2018-11-01T18:29:11.789Z,8.07
2018-11-01T18:31:41.871Z,10.20
2018-11-01T18:34:12.812Z,9.80
2018-11-01T18:36:42.862Z,8.00
2018-11-01T18:39:13.055Z,10.23
2018-11-01T18:41:43.281Z,10.30
2018-11-01T18:44:13.406Z,10.97
2018-11-01T18:46:43.628Z,11.33
2018-11-01T18:49:14.467Z,9.47
2018-11-01T18:51:44.692Z,8.70
2018-11-01T18:54:15.228Z,12.33
2018-11-01T18:56:45.346Z,11.07
2018-11-01T18:59:15.418Z,15.97
2018-11-01T19:01:45.693Z,12.43
2018-11-01T19:04:16.021Z,13.83
2018-11-01T19:06:46.175Z,15.57
2018-11-01T19:09:16.317Z,22.93
2018-11-01T19:11:46.382Z,23.23
2018-11-01T19:14:16.774Z,27.77
2018-11-01T19:16:46.804Z,31.13
2018-11-01T19:19:17.025Z,33.57
2018-11-01T19:21:47.188Z,30.57
2018-11-01T19:24:17.348Z,36.77
2018-11-01T19:26:47.557Z,33.33
2018-11-01T19:29:17.672Z,35.13
2018-11-01T19:31:47.768Z,38.17
2018-11-01T19:34:18.011Z,38.07
2018-11-01T19:36:48.005Z,39.00
2018-11-01T19:39:18.061Z,41.90
2018-11-01T19:41:48.181Z,39.17
2018-11-01T19:44:18.494Z,45.90
2018-11-01T19:46:48.659Z,43.97
2018-11-01T19:49:18.950Z,46.50
2018-11-01T19:51:49.052Z,49.80
2018-11-01T19:54:19.288Z,50.43
2018-11-01T19:56:49.197Z,47.27
2018-11-01T19:59:19.244Z,49.40
2018-11-01T20:01:49.316Z,47.33
2018-11-01T20:04:19.453Z,46.87
2018-11-01T20:06:49.409Z,45.83
2018-11-01T20:09:19.480Z,44.40
2018-11-01T20:11:49.612Z,52.87
2018-11-01T20:14:19.693Z,45.33
2018-11-01T20:16:49.751Z,47.33
2018-11-01T20:19:20.056Z,44.97
2018-11-01T20:21:50.106Z,42.13
2018-11-01T20:24:20.058Z,43.43
2018-11-01T20:26:50.158Z,37.03
2018-11-01T20:29:20.376Z,51.30
2018-11-01T20:31:50.467Z,40.93
2018-11-01T20:34:20.557Z,43.03
2018-11-01T20:36:50.661Z,36.47
2018-11-01T20:39:20.736Z,37.63
2018-11-01T20:41:50.848Z,36.47
2018-11-01T20:44:20.940Z,38.30
2018-11-01T20:46:51.012Z,40.57
2018-11-01T20:49:21.113Z,44.70
2018-11-01T20:51:51.178Z,36.67
2018-11-01T20:54:21.258Z,35.87
2018-11-01T20:56:51.444Z,42.30
2018-11-01T20:59:21.518Z,49.80
2018-11-01T21:01:51.590Z,41.27
2018-11-01T21:04:21.836Z,39.43
2018-11-01T21:06:52.022Z,45.70
2018-11-01T21:09:22.148Z,66.97
2018-11-01T21:11:52.391Z,52.53
2018-11-01T21:14:22.352Z,48.07
2018-11-01T21:16:52.575Z,38.30
2018-11-01T21:19:22.656Z,42.20
2018-11-01T21:21:52.772Z,47.77
2018-11-01T21:24:22.884Z,43.27
2018-11-01T21:26:52.964Z,40.73
2018-11-01T21:29:23.173Z,37.67
2018-11-01T21:31:53.161Z,36.70
2018-11-01T21:34:23.233Z,38.10
2018-11-01T21:36:53.340Z,34.97
2018-11-01T21:39:23.441Z,34.40
2018-11-01T21:41:53.538Z,36.47
2018-11-01T21:44:23.669Z,32.47
2018-11-01T21:46:53.797Z,34.57
2018-11-01T21:49:23.920Z,38.37
2018-11-01T21:51:54.032Z,38.20
2018-11-01T21:54:24.089Z,37.20
2018-11-01T21:56:54.162Z,38.33
2018-11-01T21:59:24.217Z,41.23
2018-11-01T22:01:54.454Z,38.53
2018-11-01T22:04:24.532Z,40.33
2018-11-01T22:06:54.789Z,41.20
2018-11-01T22:09:25.027Z,42.47
2018-11-01T22:11:55.069Z,45.47
2018-11-01T22:14:25.233Z,43.87
2018-11-01T22:16:55.450Z,43.07
2018-11-01T22:19:25.572Z,53.20
2018-11-01T22:21:55.648Z,43.27
2018-11-01T22:24:25.832Z,45.57
2018-11-01T22:26:56.042Z,39.30
2018-11-01T22:29:26.136Z,42.33
2018-11-01T22:31:56.389Z,49.47
2018-11-01T22:34:26.661Z,47.00
2018-11-01T22:36:56.942Z,51.13
2018-11-01T22:39:27.084Z,43.63
2018-11-01T22:41:57.288Z,43.23
2018-11-01T22:44:27.513Z,44.70
2018-11-01T22:46:57.644Z,52.47
2018-11-01T22:49:28.064Z,47.47
2018-11-01T22:51:58.196Z,46.57
2018-11-01T22:54:28.321Z,43.33
2018-11-01T22:56:58.534Z,46.43
2018-11-01T22:59:28.572Z,43.73
2018-11-01T23:01:59.373Z,45.33
2018-11-01T23:04:29.540Z,48.40
2018-11-01T23:06:59.676Z,43.70
2018-11-01T23:09:29.965Z,43.60
2018-11-01T23:12:00.096Z,46.50
2018-11-01T23:14:30.229Z,45.80
2018-11-01T23:17:00.436Z,49.30
2018-11-01T23:19:30.696Z,46.57
2018-11-01T23:22:00.990Z,50.73
2018-11-01T23:24:31.136Z,53.07
2018-11-01T23:27:01.233Z,50.47
2018-11-01T23:29:31.459Z,51.33
2018-11-01T23:32:02.605Z,48.70
2018-11-01T23:34:32.725Z,56.80
2018-11-01T23:37:08.272Z,54.97
2018-11-01T23:39:43.637Z,55.77
2018-11-01T23:42:19.088Z,50.93
2018-11-01T23:44:54.603Z,64.53
2018-11-01T23:47:30.732Z,57.30
2018-11-01T23:51:04.849Z,56.53
2018-11-01T23:53:39.570Z,59.23
2018-11-01T23:56:09.684Z,52.93
2018-11-01T23:58:39.816Z,58.00
